sensor_id;sensor_type;location;lat;lon;timestamp;temperature;humidity
66337;SHT30;53139;45.576;5.304;2023-05-16T00:02:06;12.32;91.56
66337;SHT30;53139;45.576;5.304;2023-05-16T00:05:07;12.27;91.79
66337;SHT30;53139;45.576;5.304;2023-05-16T00:08:09;12.33;91.26
66337;SHT30;53139;45.576;5.304;2023-05-16T00:11:10;12.25;91.62
66337;SHT30;53139;45.576;5.304;2023-05-16T00:14:10;12.19;91.56
66337;SHT30;53139;45.576;5.304;2023-05-16T00:17:11;12.16;91.60
66337;SHT30;53139;45.576;5.304;2023-05-16T00:20:12;12.09;91.66
66337;SHT30;53139;45.576;5.304;2023-05-16T00:23:13;12.09;91.69
66337;SHT30;53139;45.576;5.304;2023-05-16T00:26:14;11.99;91.81
66337;SHT30;53139;45.576;5.304;2023-05-16T00:29:14;12.05;91.64
66337;SHT30;53139;45.576;5.304;2023-05-16T00:32:14;11.99;91.68
66337;SHT30;53139;45.576;5.304;2023-05-16T00:35:15;11.88;92.08
66337;SHT30;53139;45.576;5.304;2023-05-16T00:38:15;11.78;92.58
66337;SHT30;53139;45.576;5.304;2023-05-16T00:41:16;11.83;92.42
66337;SHT30;53139;45.576;5.304;2023-05-16T00:44:17;11.78;92.38
66337;SHT30;53139;45.576;5.304;2023-05-16T00:47:17;11.65;92.95
66337;SHT30;53139;45.576;5.304;2023-05-16T00:50:18;11.72;92.84
66337;SHT30;53139;45.576;5.304;2023-05-16T00:53:19;11.75;93.10
66337;SHT30;53139;45.576;5.304;2023-05-16T00:56:19;11.79;92.86
66337;SHT30;53139;45.576;5.304;2023-05-16T00:59:20;11.82;93.11
66337;SHT30;53139;45.576;5.304;2023-05-16T01:02:21;11.86;92.80
66337;SHT30;53139;45.576;5.304;2023-05-16T01:05:22;11.98;92.44
66337;SHT30;53139;45.576;5.304;2023-05-16T01:08:23;11.93;92.72
66337;SHT30;53139;45.576;5.304;2023-05-16T01:20:58;11.95;92.17
66337;SHT30;53139;45.576;5.304;2023-05-16T01:24:12;11.89;92.46
66337;SHT30;53139;45.576;5.304;2023-05-16T01:27:15;11.89;92.57
66337;SHT30;53139;45.576;5.304;2023-05-16T01:30:18;11.85;92.58
66337;SHT30;53139;45.576;5.304;2023-05-16T01:33:18;11.85;92.65
66337;SHT30;53139;45.576;5.304;2023-05-16T01:36:35;11.82;92.88
66337;SHT30;53139;45.576;5.304;2023-05-16T01:39:56;11.89;92.37
66337;SHT30;53139;45.576;5.304;2023-05-16T01:43:02;11.88;92.38
66337;SHT30;53139;45.576;5.304;2023-05-16T01:46:10;11.88;92.28
66337;SHT30;53139;45.576;5.304;2023-05-16T01:49:18;11.85;92.56
66337;SHT30;53139;45.576;5.304;2023-05-16T01:52:27;11.81;92.70
66337;SHT30;53139;45.576;5.304;2023-05-16T01:55:44;11.83;92.44
66337;SHT30;53139;45.576;5.304;2023-05-16T01:58:46;11.86;92.45
66337;SHT30;53139;45.576;5.304;2023-05-16T02:01:47;11.88;92.48
66337;SHT30;53139;45.576;5.304;2023-05-16T02:04:47;11.90;92.83
66337;SHT30;53139;45.576;5.304;2023-05-16T02:07:48;11.93;92.41
66337;SHT30;53139;45.576;5.304;2023-05-16T02:10:49;11.90;92.39
66337;SHT30;53139;45.576;5.304;2023-05-16T02:13:50;11.88;92.39
66337;SHT30;53139;45.576;5.304;2023-05-16T02:16:51;11.83;92.80
66337;SHT30;53139;45.576;5.304;2023-05-16T02:19:51;11.88;92.83
66337;SHT30;53139;45.576;5.304;2023-05-16T02:22:52;11.86;92.53
66337;SHT30;53139;45.576;5.304;2023-05-16T02:25:52;11.89;92.81
66337;SHT30;53139;45.576;5.304;2023-05-16T02:28:52;11.86;92.59
66337;SHT30;53139;45.576;5.304;2023-05-16T02:31:53;11.86;92.76
66337;SHT30;53139;45.576;5.304;2023-05-16T02:34:54;11.86;92.71
66337;SHT30;53139;45.576;5.304;2023-05-16T02:37:55;11.86;92.56
66337;SHT30;53139;45.576;5.304;2023-05-16T02:40:55;11.89;92.50
66337;SHT30;53139;45.576;5.304;2023-05-16T02:43:56;11.85;92.87
66337;SHT30;53139;45.576;5.304;2023-05-16T02:46:56;11.85;92.71
66337;SHT30;53139;45.576;5.304;2023-05-16T02:49:57;11.85;92.65
66337;SHT30;53139;45.576;5.304;2023-05-16T02:52:57;11.82;92.81
66337;SHT30;53139;45.576;5.304;2023-05-16T02:55:58;11.79;92.86
66337;SHT30;53139;45.576;5.304;2023-05-16T02:58:59;11.79;92.49
66337;SHT30;53139;45.576;5.304;2023-05-16T03:01:59;11.81;92.47
66337;SHT30;53139;45.576;5.304;2023-05-16T03:05:00;11.78;92.63
66337;SHT30;53139;45.576;5.304;2023-05-16T03:08:00;11.74;93.02
66337;SHT30;53139;45.576;5.304;2023-05-16T03:11:01;11.71;92.99
66337;SHT30;53139;45.576;5.304;2023-05-16T03:14:01;11.75;92.61
66337;SHT30;53139;45.576;5.304;2023-05-16T03:17:02;11.77;92.61
66337;SHT30;53139;45.576;5.304;2023-05-16T03:20:03;11.75;92.60
66337;SHT30;53139;45.576;5.304;2023-05-16T03:23:04;11.74;92.57
66337;SHT30;53139;45.576;5.304;2023-05-16T03:26:08;11.70;92.66
66337;SHT30;53139;45.576;5.304;2023-05-16T03:29:08;11.71;92.86
66337;SHT30;53139;45.576;5.304;2023-05-16T03:32:10;11.75;92.19
66337;SHT30;53139;45.576;5.304;2023-05-16T03:35:10;11.75;92.50
66337;SHT30;53139;45.576;5.304;2023-05-16T03:38:11;11.74;92.61
66337;SHT30;53139;45.576;5.304;2023-05-16T03:41:11;11.71;92.60
66337;SHT30;53139;45.576;5.304;2023-05-16T03:44:12;11.71;92.47
66337;SHT30;53139;45.576;5.304;2023-05-16T03:47:12;11.72;92.74
66337;SHT30;53139;45.576;5.304;2023-05-16T03:50:13;11.71;92.84
66337;SHT30;53139;45.576;5.304;2023-05-16T03:53:13;11.71;92.82
66337;SHT30;53139;45.576;5.304;2023-05-16T03:56:14;11.67;93.13
66337;SHT30;53139;45.576;5.304;2023-05-16T03:59:14;11.65;93.19
66337;SHT30;53139;45.576;5.304;2023-05-16T04:02:16;11.64;93.26
66337;SHT30;53139;45.576;5.304;2023-05-16T04:05:16;11.64;93.45
66337;SHT30;53139;45.576;5.304;2023-05-16T04:08:16;11.65;93.51
66337;SHT30;53139;45.576;5.304;2023-05-16T04:11:17;11.62;93.50
66337;SHT30;53139;45.576;5.304;2023-05-16T04:14:17;11.65;93.61
66337;SHT30;53139;45.576;5.304;2023-05-16T04:17:18;11.61;93.65
66337;SHT30;53139;45.576;5.304;2023-05-16T04:20:18;11.62;93.86
66337;SHT30;53139;45.576;5.304;2023-05-16T04:23:19;11.61;93.77
66337;SHT30;53139;45.576;5.304;2023-05-16T04:26:19;11.60;93.86
66337;SHT30;53139;45.576;5.304;2023-05-16T04:29:21;11.61;93.90
66337;SHT30;53139;45.576;5.304;2023-05-16T04:32:22;11.64;93.72
66337;SHT30;53139;45.576;5.304;2023-05-16T04:35:23;11.61;94.24
66337;SHT30;53139;45.576;5.304;2023-05-16T04:38:23;11.60;93.85
66337;SHT30;53139;45.576;5.304;2023-05-16T04:41:24;11.62;93.89
66337;SHT30;53139;45.576;5.304;2023-05-16T04:44:25;11.64;94.02
66337;SHT30;53139;45.576;5.304;2023-05-16T04:47:25;11.61;93.64
66337;SHT30;53139;45.576;5.304;2023-05-16T04:50:26;11.64;93.75
66337;SHT30;53139;45.576;5.304;2023-05-16T04:53:26;11.60;93.32
66337;SHT30;53139;45.576;5.304;2023-05-16T04:56:27;11.61;93.15
66337;SHT30;53139;45.576;5.304;2023-05-16T04:59:28;11.67;93.22
66337;SHT30;53139;45.576;5.304;2023-05-16T05:02:28;11.62;93.36
66337;SHT30;53139;45.576;5.304;2023-05-16T05:05:29;11.64;93.09
66337;SHT30;53139;45.576;5.304;2023-05-16T05:08:29;11.58;92.78
66337;SHT30;53139;45.576;5.304;2023-05-16T05:11:30;11.57;93.02
66337;SHT30;53139;45.576;5.304;2023-05-16T05:14:30;11.57;92.70
66337;SHT30;53139;45.576;5.304;2023-05-16T05:17:31;11.58;92.77
66337;SHT30;53139;45.576;5.304;2023-05-16T05:20:31;11.57;92.93
66337;SHT30;53139;45.576;5.304;2023-05-16T05:23:32;11.54;92.53
66337;SHT30;53139;45.576;5.304;2023-05-16T05:26:34;11.54;92.69
66337;SHT30;53139;45.576;5.304;2023-05-16T05:29:34;11.58;92.63
66337;SHT30;53139;45.576;5.304;2023-05-16T05:32:35;11.64;92.47
66337;SHT30;53139;45.576;5.304;2023-05-16T05:35:35;11.64;92.01
66337;SHT30;53139;45.576;5.304;2023-05-16T05:38:36;11.70;92.21
66337;SHT30;53139;45.576;5.304;2023-05-16T05:41:44;11.72;91.92
66337;SHT30;53139;45.576;5.304;2023-05-16T05:44:44;11.75;91.32
66337;SHT30;53139;45.576;5.304;2023-05-16T05:47:51;11.81;91.43
66337;SHT30;53139;45.576;5.304;2023-05-16T05:50:52;11.81;91.45
66337;SHT30;53139;45.576;5.304;2023-05-16T05:53:53;11.79;91.08
66337;SHT30;53139;45.576;5.304;2023-05-16T05:56:53;11.79;90.88
66337;SHT30;53139;45.576;5.304;2023-05-16T05:59:53;11.81;90.98
66337;SHT30;53139;45.576;5.304;2023-05-16T06:02:55;11.78;91.32
66337;SHT30;53139;45.576;5.304;2023-05-16T06:05:55;11.79;91.58
66337;SHT30;53139;45.576;5.304;2023-05-16T06:08:56;11.71;91.89
66337;SHT30;53139;45.576;5.304;2023-05-16T06:11:56;11.71;91.54
66337;SHT30;53139;45.576;5.304;2023-05-16T06:14:57;11.74;91.04
66337;SHT30;53139;45.576;5.304;2023-05-16T06:17:57;11.72;91.50
66337;SHT30;53139;45.576;5.304;2023-05-16T06:20:58;11.72;91.34
66337;SHT30;53139;45.576;5.304;2023-05-16T06:23:58;11.67;90.96
66337;SHT30;53139;45.576;5.304;2023-05-16T06:26:59;11.71;91.28
66337;SHT30;53139;45.576;5.304;2023-05-16T06:29:59;11.68;91.02
66337;SHT30;53139;45.576;5.304;2023-05-16T06:32:59;11.72;90.82
66337;SHT30;53139;45.576;5.304;2023-05-16T06:36:00;11.68;91.40
66337;SHT30;53139;45.576;5.304;2023-05-16T06:39:00;11.71;91.36
66337;SHT30;53139;45.576;5.304;2023-05-16T06:42:01;11.70;91.04
66337;SHT30;53139;45.576;5.304;2023-05-16T06:45:01;11.71;90.94
66337;SHT30;53139;45.576;5.304;2023-05-16T06:48:03;11.68;90.80
66337;SHT30;53139;45.576;5.304;2023-05-16T06:51:03;11.70;90.90
66337;SHT30;53139;45.576;5.304;2023-05-16T06:54:04;11.57;91.10
66337;SHT30;53139;45.576;5.304;2023-05-16T06:57:04;11.57;91.71
66337;SHT30;53139;45.576;5.304;2023-05-16T07:00:06;11.61;91.68
66337;SHT30;53139;45.576;5.304;2023-05-16T07:03:07;11.57;91.70
66337;SHT30;53139;45.576;5.304;2023-05-16T07:06:07;11.58;91.10
66337;SHT30;53139;45.576;5.304;2023-05-16T07:09:08;11.60;91.30
66337;SHT30;53139;45.576;5.304;2023-05-16T07:12:08;11.64;90.93
66337;SHT30;53139;45.576;5.304;2023-05-16T07:15:09;11.67;91.03
66337;SHT30;53139;45.576;5.304;2023-05-16T07:18:09;11.65;90.39
66337;SHT30;53139;45.576;5.304;2023-05-16T07:21:13;11.72;90.67
66337;SHT30;53139;45.576;5.304;2023-05-16T07:24:13;11.70;90.41
66337;SHT30;53139;45.576;5.304;2023-05-16T07:27:14;11.64;90.41
66337;SHT30;53139;45.576;5.304;2023-05-16T07:30:14;11.65;89.96
66337;SHT30;53139;45.576;5.304;2023-05-16T07:33:15;11.67;90.00
66337;SHT30;53139;45.576;5.304;2023-05-16T07:36:15;11.71;90.46
66337;SHT30;53139;45.576;5.304;2023-05-16T07:39:15;11.64;90.15
66337;SHT30;53139;45.576;5.304;2023-05-16T07:42:16;11.68;90.41
66337;SHT30;53139;45.576;5.304;2023-05-16T07:45:16;11.68;90.50
66337;SHT30;53139;45.576;5.304;2023-05-16T07:48:16;11.60;90.88
66337;SHT30;53139;45.576;5.304;2023-05-16T07:51:17;11.55;90.84
66337;SHT30;53139;45.576;5.304;2023-05-16T07:54:17;11.48;91.34
66337;SHT30;53139;45.576;5.304;2023-05-16T07:57:18;11.45;91.55
66337;SHT30;53139;45.576;5.304;2023-05-16T08:00:19;11.58;91.45
66337;SHT30;53139;45.576;5.304;2023-05-16T08:03:19;11.54;91.74
66337;SHT30;53139;45.576;5.304;2023-05-16T08:06:20;11.53;92.16
66337;SHT30;53139;45.576;5.304;2023-05-16T08:09:20;11.70;91.61
66337;SHT30;53139;45.576;5.304;2023-05-16T08:12:21;11.58;91.64
66337;SHT30;53139;45.576;5.304;2023-05-16T08:15:21;11.58;92.04
66337;SHT30;53139;45.576;5.304;2023-05-16T08:18:21;11.50;92.43
66337;SHT30;53139;45.576;5.304;2023-05-16T08:21:22;11.41;92.56
66337;SHT30;53139;45.576;5.304;2023-05-16T08:24:22;11.31;92.89
66337;SHT30;53139;45.576;5.304;2023-05-16T08:27:23;11.30;92.97
66337;SHT30;53139;45.576;5.304;2023-05-16T08:30:25;11.48;92.79
66337;SHT30;53139;45.576;5.304;2023-05-16T08:33:25;11.57;92.49
66337;SHT30;53139;45.576;5.304;2023-05-16T08:36:26;11.53;92.17
66337;SHT30;53139;45.576;5.304;2023-05-16T08:39:27;11.50;92.11
66337;SHT30;53139;45.576;5.304;2023-05-16T08:42:29;11.44;92.31
66337;SHT30;53139;45.576;5.304;2023-05-16T08:45:30;11.45;92.37
66337;SHT30;53139;45.576;5.304;2023-05-16T08:48:31;11.79;91.69
66337;SHT30;53139;45.576;5.304;2023-05-16T08:51:34;11.90;91.21
66337;SHT30;53139;45.576;5.304;2023-05-16T08:54:36;11.98;90.12
66337;SHT30;53139;45.576;5.304;2023-05-16T08:57:37;11.93;89.97
66337;SHT30;53139;45.576;5.304;2023-05-16T09:00:39;12.20;88.88
66337;SHT30;53139;45.576;5.304;2023-05-16T09:03:39;12.25;88.82
66337;SHT30;53139;45.576;5.304;2023-05-16T09:06:40;12.50;87.87
66337;SHT30;53139;45.576;5.304;2023-05-16T09:09:41;13.24;87.40
66337;SHT30;53139;45.576;5.304;2023-05-16T09:12:41;13.09;85.41
66337;SHT30;53139;45.576;5.304;2023-05-16T09:15:42;12.85;86.36
66337;SHT30;53139;45.576;5.304;2023-05-16T09:18:52;12.84;86.95
66337;SHT30;53139;45.576;5.304;2023-05-16T09:21:54;13.02;86.71
66337;SHT30;53139;45.576;5.304;2023-05-16T09:24:58;13.02;86.35
66337;SHT30;53139;45.576;5.304;2023-05-16T09:28:00;12.74;87.02
66337;SHT30;53139;45.576;5.304;2023-05-16T09:31:00;12.81;87.25
66337;SHT30;53139;45.576;5.304;2023-05-16T09:34:01;12.47;87.13
66337;SHT30;53139;45.576;5.304;2023-05-16T09:37:02;12.71;87.71
66337;SHT30;53139;45.576;5.304;2023-05-16T09:40:03;12.60;86.96
66337;SHT30;53139;45.576;5.304;2023-05-16T09:43:05;12.33;87.01
66337;SHT30;53139;45.576;5.304;2023-05-16T09:46:06;12.37;87.97
66337;SHT30;53139;45.576;5.304;2023-05-16T09:49:11;12.23;88.16
66337;SHT30;53139;45.576;5.304;2023-05-16T09:52:12;12.45;88.04
66337;SHT30;53139;45.576;5.304;2023-05-16T09:55:13;12.67;87.31
66337;SHT30;53139;45.576;5.304;2023-05-16T09:58:16;12.48;87.55
66337;SHT30;53139;45.576;5.304;2023-05-16T10:01:17;12.50;87.29
66337;SHT30;53139;45.576;5.304;2023-05-16T10:04:17;12.57;87.27
66337;SHT30;53139;45.576;5.304;2023-05-16T10:07:19;12.51;87.57
66337;SHT30;53139;45.576;5.304;2023-05-16T10:10:21;12.27;88.03
66337;SHT30;53139;45.576;5.304;2023-05-16T10:13:30;12.74;87.19
66337;SHT30;53139;45.576;5.304;2023-05-16T10:16:31;12.93;87.46
66337;SHT30;53139;45.576;5.304;2023-05-16T10:19:35;12.57;87.06
66337;SHT30;53139;45.576;5.304;2023-05-16T10:22:42;12.85;86.98
66337;SHT30;53139;45.576;5.304;2023-05-16T10:25:43;13.24;85.42
66337;SHT30;53139;45.576;5.304;2023-05-16T10:28:44;13.13;85.98
66337;SHT30;53139;45.576;5.304;2023-05-16T10:31:46;13.54;85.56
66337;SHT30;53139;45.576;5.304;2023-05-16T10:34:47;13.72;84.45
66337;SHT30;53139;45.576;5.304;2023-05-16T10:37:49;13.85;83.44
66337;SHT30;53139;45.576;5.304;2023-05-16T10:40:51;13.60;83.40
66337;SHT30;53139;45.576;5.304;2023-05-16T10:43:56;13.54;82.65
66337;SHT30;53139;45.576;5.304;2023-05-16T10:46:57;13.71;83.28
66337;SHT30;53139;45.576;5.304;2023-05-16T10:49:58;13.65;81.16
66337;SHT30;53139;45.576;5.304;2023-05-16T10:53:29;13.61;81.93
66337;SHT30;53139;45.576;5.304;2023-05-16T10:56:32;13.50;81.39
66337;SHT30;53139;45.576;5.304;2023-05-16T10:59:46;13.32;82.31
66337;SHT30;53139;45.576;5.304;2023-05-16T11:02:47;13.22;82.90
66337;SHT30;53139;45.576;5.304;2023-05-16T11:05:51;13.34;82.79
66337;SHT30;53139;45.576;5.304;2023-05-16T11:12:11;13.42;82.57
66337;SHT30;53139;45.576;5.304;2023-05-16T11:15:24;13.98;82.67
66337;SHT30;53139;45.576;5.304;2023-05-16T11:18:25;13.98;80.86
66337;SHT30;53139;45.576;5.304;2023-05-16T11:22:04;13.60;83.56
66337;SHT30;53139;45.576;5.304;2023-05-16T11:25:07;13.40;83.67
66337;SHT30;53139;45.576;5.304;2023-05-16T11:28:09;13.30;82.87
66337;SHT30;53139;45.576;5.304;2023-05-16T11:31:11;13.51;83.40
66337;SHT30;53139;45.576;5.304;2023-05-16T11:34:11;13.06;83.23
66337;SHT30;53139;45.576;5.304;2023-05-16T11:37:13;13.23;83.42
66337;SHT30;53139;45.576;5.304;2023-05-16T11:40:14;13.05;84.19
66337;SHT30;53139;45.576;5.304;2023-05-16T11:43:18;12.98;83.63
66337;SHT30;53139;45.576;5.304;2023-05-16T11:46:19;12.82;84.72
66337;SHT30;53139;45.576;5.304;2023-05-16T11:49:20;12.91;84.72
66337;SHT30;53139;45.576;5.304;2023-05-16T11:52:21;12.68;84.94
66337;SHT30;53139;45.576;5.304;2023-05-16T11:55:23;12.78;84.80
66337;SHT30;53139;45.576;5.304;2023-05-16T11:58:24;12.68;84.85
66337;SHT30;53139;45.576;5.304;2023-05-16T12:01:33;12.68;85.24
66337;SHT30;53139;45.576;5.304;2023-05-16T12:04:35;12.64;85.80
66337;SHT30;53139;45.576;5.304;2023-05-16T12:07:37;12.57;85.63
66337;SHT30;53139;45.576;5.304;2023-05-16T12:10:37;12.78;85.63
66337;SHT30;53139;45.576;5.304;2023-05-16T12:13:38;12.64;85.46
66337;SHT30;53139;45.576;5.304;2023-05-16T12:16:39;12.84;85.35
66337;SHT30;53139;45.576;5.304;2023-05-16T12:19:43;12.71;85.17
66337;SHT30;53139;45.576;5.304;2023-05-16T12:22:45;12.67;85.33
66337;SHT30;53139;45.576;5.304;2023-05-16T12:25:46;12.75;85.38
66337;SHT30;53139;45.576;5.304;2023-05-16T12:28:52;13.08;85.26
66337;SHT30;53139;45.576;5.304;2023-05-16T12:31:55;12.92;83.94
66337;SHT30;53139;45.576;5.304;2023-05-16T12:34:55;12.78;83.80
66337;SHT30;53139;45.576;5.304;2023-05-16T12:37:56;13.00;84.71
66337;SHT30;53139;45.576;5.304;2023-05-16T12:40:57;13.03;84.48
66337;SHT30;53139;45.576;5.304;2023-05-16T12:44:15;13.08;83.39
66337;SHT30;53139;45.576;5.304;2023-05-16T12:47:18;13.22;84.39
66337;SHT30;53139;45.576;5.304;2023-05-16T12:50:20;13.72;83.62
66337;SHT30;53139;45.576;5.304;2023-05-16T12:53:21;13.61;82.71
66337;SHT30;53139;45.576;5.304;2023-05-16T12:56:22;13.99;82.45
66337;SHT30;53139;45.576;5.304;2023-05-16T12:59:22;14.44;81.60
66337;SHT30;53139;45.576;5.304;2023-05-16T13:02:23;15.08;79.41
66337;SHT30;53139;45.576;5.304;2023-05-16T13:05:23;14.13;79.64
66337;SHT30;53139;45.576;5.304;2023-05-16T13:08:27;13.65;81.41
66337;SHT30;53139;45.576;5.304;2023-05-16T13:11:28;13.88;81.22
66337;SHT30;53139;45.576;5.304;2023-05-16T13:14:28;13.36;81.63
66337;SHT30;53139;45.576;5.304;2023-05-16T13:17:29;13.33;81.95
66337;SHT30;53139;45.576;5.304;2023-05-16T13:20:29;13.51;81.98
66337;SHT30;53139;45.576;5.304;2023-05-16T13:23:30;13.46;81.45
66337;SHT30;53139;45.576;5.304;2023-05-16T13:26:30;13.43;81.97
66337;SHT30;53139;45.576;5.304;2023-05-16T13:29:30;13.09;82.57
66337;SHT30;53139;45.576;5.304;2023-05-16T13:32:31;13.30;83.04
66337;SHT30;53139;45.576;5.304;2023-05-16T13:35:32;13.15;82.50
66337;SHT30;53139;45.576;5.304;2023-05-16T13:38:32;13.10;82.56
66337;SHT30;53139;45.576;5.304;2023-05-16T13:41:33;12.96;83.67
66337;SHT30;53139;45.576;5.304;2023-05-16T13:44:36;12.87;83.56
66337;SHT30;53139;45.576;5.304;2023-05-16T13:47:37;12.78;82.76
66337;SHT30;53139;45.576;5.304;2023-05-16T13:50:37;12.71;83.05
66337;SHT30;53139;45.576;5.304;2023-05-16T13:53:38;12.82;82.49
66337;SHT30;53139;45.576;5.304;2023-05-16T13:56:39;13.09;82.31
66337;SHT30;53139;45.576;5.304;2023-05-16T13:59:39;13.34;81.80
66337;SHT30;53139;45.576;5.304;2023-05-16T14:02:40;13.44;81.97
66337;SHT30;53139;45.576;5.304;2023-05-16T14:05:41;13.16;81.29
66337;SHT30;53139;45.576;5.304;2023-05-16T14:08:41;13.17;81.66
66337;SHT30;53139;45.576;5.304;2023-05-16T14:11:42;13.32;81.78
66337;SHT30;53139;45.576;5.304;2023-05-16T14:14:42;13.33;82.36
66337;SHT30;53139;45.576;5.304;2023-05-16T14:17:43;13.05;81.54
66337;SHT30;53139;45.576;5.304;2023-05-16T14:20:43;12.87;81.75
66337;SHT30;53139;45.576;5.304;2023-05-16T14:23:43;13.24;82.00
66337;SHT30;53139;45.576;5.304;2023-05-16T14:26:44;13.13;81.95
66337;SHT30;53139;45.576;5.304;2023-05-16T14:29:44;13.13;81.83
66337;SHT30;53139;45.576;5.304;2023-05-16T14:32:46;13.09;82.80
66337;SHT30;53139;45.576;5.304;2023-05-16T14:35:47;13.39;81.82
66337;SHT30;53139;45.576;5.304;2023-05-16T14:38:49;13.16;82.03
66337;SHT30;53139;45.576;5.304;2023-05-16T14:41:49;13.68;80.56
66337;SHT30;53139;45.576;5.304;2023-05-16T14:44:50;13.53;80.21
66337;SHT30;53139;45.576;5.304;2023-05-16T14:47:50;13.40;80.59
66337;SHT30;53139;45.576;5.304;2023-05-16T14:50:51;13.39;81.38
66337;SHT30;53139;45.576;5.304;2023-05-16T14:53:52;13.33;80.76
66337;SHT30;53139;45.576;5.304;2023-05-16T14:56:53;13.30;80.82
66337;SHT30;53139;45.576;5.304;2023-05-16T15:00:09;13.27;81.56
66337;SHT30;53139;45.576;5.304;2023-05-16T15:03:10;13.40;80.22
66337;SHT30;53139;45.576;5.304;2023-05-16T15:06:12;13.53;80.24
66337;SHT30;53139;45.576;5.304;2023-05-16T15:09:16;13.44;80.37
66337;SHT30;53139;45.576;5.304;2023-05-16T15:12:21;13.67;80.41
66337;SHT30;53139;45.576;5.304;2023-05-16T15:15:25;13.58;80.99
66337;SHT30;53139;45.576;5.304;2023-05-16T15:18:25;13.32;80.12
66337;SHT30;53139;45.576;5.304;2023-05-16T15:21:26;13.24;80.23
66337;SHT30;53139;45.576;5.304;2023-05-16T15:24:27;13.39;80.28
66337;SHT30;53139;45.576;5.304;2023-05-16T15:27:52;13.46;80.59
66337;SHT30;53139;45.576;5.304;2023-05-16T15:39:15;13.23;80.27
66337;SHT30;53139;45.576;5.304;2023-05-16T15:43:30;13.26;80.10
66337;SHT30;53139;45.576;5.304;2023-05-16T16:00:18;12.87;80.99
66337;SHT30;53139;45.576;5.304;2023-05-16T16:17:19;12.72;81.96
66337;SHT30;53139;45.576;5.304;2023-05-16T16:20:48;12.72;82.18
66337;SHT30;53139;45.576;5.304;2023-05-16T16:23:48;12.74;81.82
66337;SHT30;53139;45.576;5.304;2023-05-16T16:26:49;12.67;82.39
66337;SHT30;53139;45.576;5.304;2023-05-16T16:29:50;12.64;81.58
66337;SHT30;53139;45.576;5.304;2023-05-16T16:32:50;12.71;81.24
66337;SHT30;53139;45.576;5.304;2023-05-16T16:35:58;12.75;81.15
66337;SHT30;53139;45.576;5.304;2023-05-16T16:39:12;12.72;81.62
66337;SHT30;53139;45.576;5.304;2023-05-16T16:42:49;12.67;81.36
66337;SHT30;53139;45.576;5.304;2023-05-16T16:46:09;12.72;81.95
66337;SHT30;53139;45.576;5.304;2023-05-16T16:49:13;12.64;81.97
66337;SHT30;53139;45.576;5.304;2023-05-16T16:52:23;12.65;81.60
66337;SHT30;53139;45.576;5.304;2023-05-16T16:55:33;12.62;81.24
66337;SHT30;53139;45.576;5.304;2023-05-16T16:58:41;12.64;81.45
66337;SHT30;53139;45.576;5.304;2023-05-16T17:01:48;12.75;81.23
66337;SHT30;53139;45.576;5.304;2023-05-16T17:09:28;12.84;79.56
66337;SHT30;53139;45.576;5.304;2023-05-16T17:25:54;12.55;79.57
66337;SHT30;53139;45.576;5.304;2023-05-16T17:29:49;12.48;80.35
66337;SHT30;53139;45.576;5.304;2023-05-16T17:33:04;12.47;80.84
66337;SHT30;53139;45.576;5.304;2023-05-16T17:36:44;12.50;80.53
66337;SHT30;53139;45.576;5.304;2023-05-16T17:40:45;12.43;79.83
66337;SHT30;53139;45.576;5.304;2023-05-16T17:44:11;12.36;80.76
66337;SHT30;53139;45.576;5.304;2023-05-16T18:00:17;12.27;80.50
66337;SHT30;53139;45.576;5.304;2023-05-16T18:04:25;12.27;79.74
66337;SHT30;53139;45.576;5.304;2023-05-16T18:08:19;12.29;80.02
66337;SHT30;53139;45.576;5.304;2023-05-16T18:12:21;12.25;80.57
66337;SHT30;53139;45.576;5.304;2023-05-16T18:20:12;12.17;80.16
66337;SHT30;53139;45.576;5.304;2023-05-16T18:24:26;12.12;80.59
66337;SHT30;53139;45.576;5.304;2023-05-16T18:28:12;12.08;80.28
66337;SHT30;53139;45.576;5.304;2023-05-16T18:36:26;12.08;79.48
66337;SHT30;53139;45.576;5.304;2023-05-16T18:40:37;12.02;79.96
66337;SHT30;53139;45.576;5.304;2023-05-16T18:44:43;11.95;80.25
66337;SHT30;53139;45.576;5.304;2023-05-16T19:00:48;11.89;79.57
66337;SHT30;53139;45.576;5.304;2023-05-16T19:04:37;11.85;79.80
66337;SHT30;53139;45.576;5.304;2023-05-16T19:08:39;11.85;79.58
66337;SHT30;53139;45.576;5.304;2023-05-16T19:37:54;11.67;79.69
66337;SHT30;53139;45.576;5.304;2023-05-16T19:41:27;11.67;79.56
66337;SHT30;53139;45.576;5.304;2023-05-16T19:44:27;11.61;79.95
66337;SHT30;53139;45.576;5.304;2023-05-16T19:47:28;11.60;80.03
66337;SHT30;53139;45.576;5.304;2023-05-16T19:50:28;11.64;79.56
66337;SHT30;53139;45.576;5.304;2023-05-16T19:53:29;11.60;79.95
66337;SHT30;53139;45.576;5.304;2023-05-16T19:56:30;11.62;80.15
66337;SHT30;53139;45.576;5.304;2023-05-16T19:59:30;11.57;80.20
66337;SHT30;53139;45.576;5.304;2023-05-16T20:02:32;11.54;80.40
66337;SHT30;53139;45.576;5.304;2023-05-16T20:05:32;11.58;79.33
66337;SHT30;53139;45.576;5.304;2023-05-16T20:08:33;11.55;79.73
66337;SHT30;53139;45.576;5.304;2023-05-16T20:11:33;11.61;79.40
66337;SHT30;53139;45.576;5.304;2023-05-16T20:14:34;11.57;79.43
66337;SHT30;53139;45.576;5.304;2023-05-16T20:17:38;11.53;79.01
66337;SHT30;53139;45.576;5.304;2023-05-16T20:20:39;11.53;79.26
66337;SHT30;53139;45.576;5.304;2023-05-16T20:23:43;11.54;79.03
66337;SHT30;53139;45.576;5.304;2023-05-16T20:26:44;11.54;78.80
66337;SHT30;53139;45.576;5.304;2023-05-16T20:29:46;11.50;79.19
66337;SHT30;53139;45.576;5.304;2023-05-16T20:32:57;11.50;79.13
66337;SHT30;53139;45.576;5.304;2023-05-16T20:35:58;11.50;79.00
66337;SHT30;53139;45.576;5.304;2023-05-16T20:38:59;11.51;79.07
66337;SHT30;53139;45.576;5.304;2023-05-16T20:41:59;11.47;79.35
66337;SHT30;53139;45.576;5.304;2023-05-16T20:45:00;11.43;79.51
66337;SHT30;53139;45.576;5.304;2023-05-16T20:48:00;11.40;79.34
66337;SHT30;53139;45.576;5.304;2023-05-16T20:51:01;11.40;79.33
66337;SHT30;53139;45.576;5.304;2023-05-16T20:54:01;11.37;79.12
66337;SHT30;53139;45.576;5.304;2023-05-16T20:57:02;11.31;79.67
66337;SHT30;53139;45.576;5.304;2023-05-16T21:00:03;11.26;79.99
66337;SHT30;53139;45.576;5.304;2023-05-16T21:03:04;11.34;79.26
66337;SHT30;53139;45.576;5.304;2023-05-16T21:06:04;11.28;79.53
66337;SHT30;53139;45.576;5.304;2023-05-16T21:09:05;11.28;79.56
66337;SHT30;53139;45.576;5.304;2023-05-16T21:12:26;11.23;80.09
66337;SHT30;53139;45.576;5.304;2023-05-16T21:15:29;11.26;80.10
66337;SHT30;53139;45.576;5.304;2023-05-16T21:18:29;11.24;80.05
66337;SHT30;53139;45.576;5.304;2023-05-16T21:21:30;11.20;80.14
66337;SHT30;53139;45.576;5.304;2023-05-16T21:24:31;11.22;79.87
66337;SHT30;53139;45.576;5.304;2023-05-16T21:27:36;11.16;80.38
66337;SHT30;53139;45.576;5.304;2023-05-16T21:30:37;11.17;79.98
66337;SHT30;53139;45.576;5.304;2023-05-16T21:33:37;11.19;79.86